首页
METAR-TAF:

METAR-TAF

机场 :

Minocqua / Woodruff, 威斯康辛州, 美国

纬度: 45-56N, 经度: 089-44W, 海拔: 496米

当前天气观测

该预报发布于29分钟前的06:35 UTC
静风
温度 10°C
湿度 82%
气压 1007 hPa
能見度: 16.1公里
阴天层高于700英尺

METAR: KARV 200635Z AUTO 00000KT 10SM OVC007 10/07 A2974 RMK AO2 T00960074

时间: 02:04 (07:04 UTC)


TAF: 丢失

超过4000个机场的气象观测和天气预报(METAR&TAF报告)。

可查询的气象台以黄色和红色小点在地图上表示。

将鼠标移到小点上方,可查看气象台名称。

然后点击查看天气观测和预报。

如需切换地图:点击带黑十字的绿色按钮放大地图;点击带横线的绿色按钮缩小地图;或者点击绿色箭头查看邻近地区的地图。


METAR-TAF: